Los Angeles, California
Current Conditions -  °F | °C
As of 6:47 AM on Saturday 25 Oct 2014 (Local Time) from KCQT Reporting Station
Overcast Overcast  
Wind Chill: 64°   Ceiling: 10000
Heat Index: 64°   Visibility: 10mi
Dew Point: 54°   Wind: 0mph
Humidity: 70%   Direction: NA
Pressure: 30"   Gusts: NA
Location:  34.05°N, 118.24°W
Report Text: KCQT 251347Z AUTO 00000KT 10SM OVC100 18/12 A3000 RMK AO2 SLP155 T01780122
Loading
Personal Weather Stations






























Interactive Weather Map
Tropical Storm Tracking
New forecast layout! Learn more

10-Day Weather Forecast

Advertisements
Track Severe Weather on mobile